Terminal Aerodrome Forecast
Issued by NWS Burlington, VT

Home | Current Version | Previous Version | Text Only | Print | Product List | Glossary On
Versions: 1 2 3 4 5 6 7 8 9 10 11 12 13 14 15 16 17 18 19
563
FTUS41 KBTV 101123
TAFBTV
TAF
KBTV 101123Z 1012/1112 18010KT P6SM VCSH SCT025 OVC035
      TEMPO 1012/1016 BKN025 OVC035
     FM101600 20006KT P6SM VCSH OVC025
     FM102100 29006KT 2SM -SN BR OVC020
     FM110300 30005KT 3SM -SN BR OVC020=

USA.gov is the U.S. government's official web portal to all federal, state and local government web resources and services.